createdAt,value
2018-12-31T00:03:05.503Z,98647.97
2018-12-31T00:06:13.485Z,98661.13
2018-12-31T00:09:20.381Z,98657.67
2018-12-31T00:12:27.893Z,98666.55
2018-12-31T00:15:34.673Z,98663.61
2018-12-31T00:18:41.377Z,98669.09
2018-12-31T00:21:48.396Z,98665.30
2018-12-31T00:24:55.332Z,98665.31
2018-12-31T00:28:02.399Z,98667.02
2018-12-31T00:31:09.327Z,98674.16
2018-12-31T00:34:17.131Z,98672.06
2018-12-31T00:37:27.207Z,98668.30
2018-12-31T00:40:33.863Z,98664.03
2018-12-31T00:43:41.054Z,98656.88
2018-12-31T00:46:48.033Z,98659.84
2018-12-31T00:49:54.742Z,98656.03
2018-12-31T00:53:01.675Z,98661.09
2018-12-31T00:56:08.385Z,98653.06
2018-12-31T00:59:15.356Z,98656.84
2018-12-31T01:02:22.595Z,98660.65
2018-12-31T01:05:30.985Z,98658.50
2018-12-31T01:08:38.655Z,98658.13
2018-12-31T01:11:45.595Z,98648.39
2018-12-31T01:14:52.344Z,98654.73
2018-12-31T01:17:59.058Z,98656.41
2018-12-31T01:21:06.047Z,98662.34
2018-12-31T01:24:13.787Z,98666.15
2018-12-31T01:27:21.520Z,98663.20
2018-12-31T01:30:28.496Z,98666.59
2018-12-31T01:33:35.226Z,98653.91
2018-12-31T01:36:44.014Z,98654.33
2018-12-31T01:39:50.806Z,98652.60
2018-12-31T01:42:57.768Z,98650.50
2018-12-31T01:46:04.487Z,98652.20
2018-12-31T01:49:11.468Z,98656.00
2018-12-31T01:52:18.174Z,98658.52
2018-12-31T01:55:25.131Z,98658.53
2018-12-31T01:58:32.117Z,98656.38
2018-12-31T02:01:39.003Z,98649.63
2018-12-31T02:04:46.072Z,98654.73
2018-12-31T02:07:53.547Z,98661.50
2018-12-31T02:11:00.491Z,98661.48
2018-12-31T02:14:07.419Z,98673.37
2018-12-31T02:17:14.358Z,98664.91
2018-12-31T02:20:21.538Z,98652.23
2018-12-31T02:23:28.896Z,98649.27
2018-12-31T02:26:36.065Z,98648.02
2018-12-31T02:29:43.114Z,98651.31
2018-12-31T02:32:49.802Z,98653.88
2018-12-31T02:35:56.791Z,98648.36
2018-12-31T02:39:04.733Z,98643.66
2018-12-31T02:42:11.703Z,98649.63
2018-12-31T02:45:18.671Z,98647.94
2018-12-31T02:48:26.298Z,98650.86
2018-12-31T02:51:33.196Z,98645.77
2018-12-31T02:54:40.108Z,98658.86
2018-12-31T02:57:47.331Z,98644.51
2018-12-31T03:00:54.336Z,98660.60
2018-12-31T03:04:01.003Z,98648.30
2018-12-31T03:07:08.004Z,98666.03
2018-12-31T03:10:15.276Z,98661.81
2018-12-31T03:13:22.635Z,98669.86
2018-12-31T03:16:30.475Z,98694.36
2018-12-31T03:19:37.442Z,98686.78
2018-12-31T03:22:44.345Z,98662.28
2018-12-31T03:25:51.260Z,98663.17
2018-12-31T03:28:58.177Z,98657.63
2018-12-31T03:32:05.394Z,98666.42
2018-12-31T03:35:12.627Z,98668.52
2018-12-31T03:38:20.277Z,98675.73
2018-12-31T03:41:27.260Z,98673.23
2018-12-31T03:44:34.183Z,98669.43
2018-12-31T03:47:41.095Z,98689.30
2018-12-31T03:50:48.289Z,98677.46
2018-12-31T03:53:55.250Z,98691.41
2018-12-31T03:57:02.202Z,98681.66
2018-12-31T04:00:08.936Z,98674.96
2018-12-31T04:03:15.813Z,98679.56
2018-12-31T04:06:22.857Z,98674.89
2018-12-31T04:09:30.098Z,98672.02
2018-12-31T04:12:37.430Z,98688.54
2018-12-31T04:15:44.370Z,98704.54
2018-12-31T04:18:51.265Z,98680.05
2018-12-31T04:21:58.176Z,98679.64
2018-12-31T04:25:08.191Z,98691.45
2018-12-31T04:28:17.129Z,98701.14
2018-12-31T04:31:24.588Z,98705.01
2018-12-31T04:34:32.019Z,98704.55
2018-12-31T04:37:39.113Z,98691.86
2018-12-31T04:40:46.037Z,98692.73
2018-12-31T04:43:52.934Z,98690.22
2018-12-31T04:47:00.268Z,98699.83
2018-12-31T04:50:07.346Z,98706.16
2018-12-31T04:53:14.223Z,98706.58
2018-12-31T04:56:21.114Z,98708.73
2018-12-31T04:59:28.053Z,98710.41
2018-12-31T05:02:35.683Z,98705.70
2018-12-31T05:05:43.510Z,98708.71
2018-12-31T05:08:50.489Z,98699.46
2018-12-31T05:11:57.380Z,98691.86
2018-12-31T05:15:05.726Z,98689.25
2018-12-31T05:18:12.505Z,98694.25
2018-12-31T05:21:19.182Z,98697.25
2018-12-31T05:24:26.151Z,98700.68
2018-12-31T05:27:35.764Z,98689.66
2018-12-31T05:30:42.829Z,98691.70
2018-12-31T05:33:52.887Z,98690.47
2018-12-31T05:36:59.811Z,98695.08
2018-12-31T05:40:07.130Z,98706.51
2018-12-31T05:43:14.166Z,98710.37
2018-12-31T05:46:20.823Z,98710.75
2018-12-31T05:49:27.791Z,98707.49
2018-12-31T05:52:35.093Z,98706.19
2018-12-31T05:55:41.998Z,98703.22
2018-12-31T05:58:49.502Z,98700.72
2018-12-31T06:01:56.465Z,98706.24
2018-12-31T06:05:03.383Z,98714.58
2018-12-31T06:08:10.309Z,98718.86
2018-12-31T06:11:17.198Z,98715.90
2018-12-31T06:14:24.069Z,98716.39
2018-12-31T06:17:32.975Z,98723.89
2018-12-31T06:20:39.861Z,98721.39
2018-12-31T06:23:47.501Z,98722.20
2018-12-31T06:26:54.482Z,98724.80
2018-12-31T06:30:02.270Z,98727.28
2018-12-31T06:33:09.511Z,98724.28
2018-12-31T06:36:16.490Z,98728.48
2018-12-31T06:39:23.520Z,98734.34
2018-12-31T06:42:30.259Z,98738.61
2018-12-31T06:45:37.752Z,98744.56
2018-12-31T06:48:44.495Z,98741.64
2018-12-31T06:51:52.172Z,98728.50
2018-12-31T06:54:59.109Z,98723.08
2018-12-31T06:58:06.045Z,98730.69
2018-12-31T07:01:13.124Z,98731.94
2018-12-31T07:04:20.103Z,98733.61
2018-12-31T07:07:27.107Z,98729.42
2018-12-31T07:10:33.788Z,98734.48
2018-12-31T07:13:40.704Z,98735.36
2018-12-31T07:16:47.689Z,98744.64
2018-12-31T07:19:54.769Z,98756.52
2018-12-31T07:23:01.620Z,98759.49
2018-12-31T07:26:08.559Z,98766.26
2018-12-31T07:29:15.858Z,98779.38
2018-12-31T07:32:22.795Z,98779.02
2018-12-31T07:35:29.527Z,98789.98
2018-12-31T07:38:36.633Z,98785.75
2018-12-31T07:41:43.322Z,98787.53
2018-12-31T07:44:50.256Z,98793.03
2018-12-31T07:47:56.960Z,98791.80
2018-12-31T07:51:03.903Z,98799.41
2018-12-31T07:54:10.780Z,98800.27
2018-12-31T07:57:17.506Z,98798.53
2018-12-31T08:00:24.517Z,98788.38
2018-12-31T08:03:31.193Z,98774.89
2018-12-31T08:06:41.404Z,98775.77
2018-12-31T08:09:48.270Z,98775.34
2018-12-31T08:12:55.176Z,98771.53
2018-12-31T08:16:02.074Z,98769.88
2018-12-31T08:19:08.954Z,98777.44
2018-12-31T08:22:16.439Z,98777.02
2018-12-31T08:25:26.433Z,98775.77
2018-12-31T08:28:33.317Z,98775.38
2018-12-31T08:31:40.673Z,98791.41
2018-12-31T08:34:47.630Z,98790.58
2018-12-31T08:37:56.425Z,98786.80
2018-12-31T08:41:03.347Z,98800.30
2018-12-31T08:44:10.071Z,98792.68
2018-12-31T08:47:18.606Z,98789.81
2018-12-31T08:50:26.207Z,98798.28
2018-12-31T08:53:33.144Z,98802.88
2018-12-31T08:56:40.020Z,98807.96
2018-12-31T08:59:46.893Z,98820.67
2018-12-31T09:02:53.727Z,98812.65
2018-12-31T09:06:21.489Z,98803.79
2018-12-31T09:09:28.684Z,98805.90
2018-12-31T09:12:35.628Z,98802.94
2018-12-31T09:15:42.350Z,98804.19
2018-12-31T09:18:49.294Z,98810.11
2018-12-31T09:21:56.023Z,98806.75
2018-12-31T09:25:03.300Z,98798.71
2018-12-31T09:28:10.246Z,98793.67
2018-12-31T09:31:19.674Z,98789.88
2018-12-31T09:34:26.729Z,98793.28
2018-12-31T09:37:33.617Z,98793.67
2018-12-31T09:40:41.163Z,98795.42
2018-12-31T09:43:49.318Z,98793.34
2018-12-31T09:46:56.239Z,98795.03
2018-12-31T09:50:03.115Z,98795.91
2018-12-31T09:53:10.033Z,98791.66
2018-12-31T09:56:16.924Z,98793.39
2018-12-31T09:59:24.130Z,98792.08
2018-12-31T10:02:31.189Z,98789.59
2018-12-31T10:05:37.992Z,98783.70
2018-12-31T10:08:49.222Z,98784.99
2018-12-31T10:11:53.095Z,98787.56
2018-12-31T10:15:00.296Z,98789.26
2018-12-31T10:18:07.339Z,98788.03
2018-12-31T10:21:14.082Z,98786.80
2018-12-31T10:24:20.910Z,98783.03
2018-12-31T10:27:27.905Z,98787.76
2018-12-31T10:30:34.642Z,98780.95
2018-12-31T10:34:09.159Z,98772.95
2018-12-31T10:37:16.201Z,98772.08
2018-12-31T10:40:23.185Z,98766.17
2018-12-31T10:43:30.203Z,98766.17
2018-12-31T10:46:37.157Z,98758.14
2018-12-31T10:49:44.394Z,98762.84
2018-12-31T10:52:51.368Z,98760.31
2018-12-31T10:55:58.135Z,98759.06
2018-12-31T10:59:04.935Z,98761.64
2018-12-31T11:02:11.879Z,98755.30
2018-12-31T11:05:21.352Z,98756.17
2018-12-31T11:08:28.365Z,98752.36
2018-12-31T11:11:36.162Z,98751.11
2018-12-31T11:14:43.185Z,98751.97
2018-12-31T11:17:49.917Z,98753.61
2018-12-31T11:20:56.727Z,98753.63
2018-12-31T11:24:03.432Z,98751.95
2018-12-31T11:27:10.454Z,98747.28
2018-12-31T11:30:18.380Z,98741.39
2018-12-31T11:33:25.414Z,98740.92
2018-12-31T11:36:32.583Z,98739.66
2018-12-31T11:39:39.656Z,98735.44
2018-12-31T11:42:46.591Z,98729.08
2018-12-31T11:45:53.615Z,98727.83
2018-12-31T11:49:00.562Z,98727.83
2018-12-31T11:52:08.330Z,98724.45
2018-12-31T11:55:28.131Z,98725.28
2018-12-31T11:58:34.907Z,98724.03
2018-12-31T12:01:41.657Z,98723.18
2018-12-31T12:04:48.641Z,98715.58
2018-12-31T12:07:55.576Z,98716.88
2018-12-31T12:11:01.209Z,98708.44
2018-12-31T12:14:09.533Z,98700.36
2018-12-31T12:17:16.940Z,98706.33
2018-12-31T12:20:22.529Z,98704.63
2018-12-31T12:23:28.126Z,98708.84
2018-12-31T12:26:42.071Z,98707.19
2018-12-31T12:29:43.157Z,98710.58
2018-12-31T12:32:51.531Z,98710.57
2018-12-31T12:35:57.166Z,98713.56
2018-12-31T12:39:02.737Z,98714.84
2018-12-31T12:42:08.343Z,98714.84
2018-12-31T12:45:13.978Z,98718.20
2018-12-31T12:48:21.941Z,98717.80
2018-12-31T12:51:27.483Z,98716.95
2018-12-31T12:54:33.053Z,98726.05
2018-12-31T12:57:38.580Z,98731.92
2018-12-31T13:00:44.492Z,98726.31
2018-12-31T13:03:50.034Z,98729.78
2018-12-31T13:06:55.588Z,98729.55
2018-12-31T13:10:01.872Z,98733.30
2018-12-31T13:13:07.467Z,98727.05
2018-12-31T13:16:13.197Z,98726.13
2018-12-31T13:19:19.063Z,98721.53
2018-12-31T13:22:24.632Z,98719.75
2018-12-31T13:25:30.183Z,98718.11
2018-12-31T13:28:35.783Z,98730.84
2018-12-31T13:31:41.351Z,98730.75
2018-12-31T13:34:47.280Z,98724.88
2018-12-31T13:37:53.152Z,98732.45
2018-12-31T13:40:58.882Z,98732.89
2018-12-31T13:44:07.263Z,98726.97
2018-12-31T13:47:13.691Z,98725.27
2018-12-31T13:50:19.556Z,98726.18
2018-12-31T13:53:26.292Z,98731.27
2018-12-31T13:56:31.860Z,98731.20
2018-12-31T13:59:37.477Z,98734.59
2018-12-31T14:02:43.050Z,98728.23
2018-12-31T14:05:48.758Z,98727.44
2018-12-31T14:08:54.334Z,98718.58
2018-12-31T14:11:59.901Z,98716.02
2018-12-31T14:15:08.398Z,98720.59
2018-12-31T14:18:14.015Z,98718.91
2018-12-31T14:21:20.175Z,98722.34
2018-12-31T14:24:25.706Z,98729.17
2018-12-31T14:27:31.489Z,98724.90
2018-12-31T14:30:37.317Z,98727.42
2018-12-31T14:33:45.644Z,98727.42
2018-12-31T14:36:51.469Z,98734.16
2018-12-31T14:39:57.068Z,98744.30
2018-12-31T14:43:02.616Z,98744.26
2018-12-31T14:46:08.227Z,98744.31
2018-12-31T14:49:13.806Z,98741.03
2018-12-31T14:52:19.489Z,98747.67
2018-12-31T14:55:26.022Z,98743.89
2018-12-31T14:58:31.685Z,98741.39
2018-12-31T15:01:37.397Z,98740.49
2018-12-31T15:04:42.969Z,98748.97
2018-12-31T15:08:12.822Z,98747.22
2018-12-31T15:11:18.392Z,98754.83
2018-12-31T15:14:38.991Z,98765.39
2018-12-31T15:17:42.229Z,98769.63
2018-12-31T15:20:48.318Z,98769.18
2018-12-31T15:23:53.893Z,98769.59
2018-12-31T15:26:59.700Z,98768.34
2018-12-31T15:30:06.090Z,98748.48
2018-12-31T15:33:14.165Z,98759.92
2018-12-31T15:36:19.775Z,98756.48
2018-12-31T15:39:26.048Z,98753.94
2018-12-31T15:42:31.622Z,98759.92
2018-12-31T15:45:38.797Z,98749.27
2018-12-31T15:48:44.359Z,98749.30
2018-12-31T15:51:49.958Z,98755.23
2018-12-31T15:54:55.526Z,98760.31
2018-12-31T15:58:01.081Z,98764.97
2018-12-31T16:01:06.640Z,98761.91
2018-12-31T16:04:12.238Z,98766.53
2018-12-31T16:07:17.796Z,98765.72
2018-12-31T16:10:24.057Z,98758.52
2018-12-31T16:13:29.671Z,98762.78
2018-12-31T16:16:37.334Z,98760.63
2018-12-31T16:19:47.686Z,98766.58
2018-12-31T16:22:53.554Z,98762.34
2018-12-31T16:26:00.206Z,98766.17
2018-12-31T16:29:07.150Z,98756.81
2018-12-31T16:32:13.747Z,98751.32
2018-12-31T16:35:19.280Z,98756.39
2018-12-31T16:38:24.867Z,98757.61
2018-12-31T16:41:30.811Z,98756.80
2018-12-31T16:44:37.482Z,98761.06
2018-12-31T16:47:43.087Z,98760.14
2018-12-31T16:50:50.990Z,98750.00
2018-12-31T16:53:58.979Z,98761.47
2018-12-31T16:57:05.295Z,98754.28
2018-12-31T17:00:10.879Z,98754.67
2018-12-31T17:03:17.576Z,98764.90
2018-12-31T17:06:23.122Z,98756.41
2018-12-31T17:09:28.704Z,98755.20
2018-12-31T17:12:34.239Z,98748.31
2018-12-31T17:15:40.031Z,98753.81
2018-12-31T17:18:45.637Z,98750.00
2018-12-31T17:21:51.963Z,98750.45
2018-12-31T17:24:57.936Z,98744.94
2018-12-31T17:28:03.514Z,98747.05
2018-12-31T17:31:09.669Z,98736.91
2018-12-31T17:34:15.280Z,98735.63
2018-12-31T17:37:20.902Z,98734.79
2018-12-31T17:40:28.170Z,98733.56
2018-12-31T17:43:33.970Z,98735.22
2018-12-31T17:46:39.665Z,98739.05
2018-12-31T17:49:45.219Z,98736.52
2018-12-31T17:52:51.081Z,98740.33
2018-12-31T17:55:56.640Z,98748.81
2018-12-31T17:59:02.296Z,98741.16
2018-12-31T18:02:08.188Z,98744.15
2018-12-31T18:05:13.744Z,98743.30
2018-12-31T18:08:19.450Z,98741.56
2018-12-31T18:11:25.034Z,98741.58
2018-12-31T18:14:30.595Z,98753.47
2018-12-31T18:17:36.225Z,98749.63
2018-12-31T18:20:42.034Z,98753.01
2018-12-31T18:23:47.631Z,98749.23
2018-12-31T18:26:53.188Z,98754.31
2018-12-31T18:29:58.758Z,98752.23
2018-12-31T18:33:04.319Z,98755.62
2018-12-31T18:36:09.888Z,98756.44
2018-12-31T18:39:16.675Z,98756.84
2018-12-31T18:42:23.619Z,98755.16
2018-12-31T18:45:29.490Z,98763.19
2018-12-31T18:48:35.214Z,98761.09
2018-12-31T18:51:40.938Z,98769.13
2018-12-31T18:54:46.503Z,98768.73
2018-12-31T18:57:52.511Z,98773.39
2018-12-31T19:00:58.118Z,98765.77
2018-12-31T19:04:03.927Z,98764.09
2018-12-31T19:07:09.663Z,98773.39
2018-12-31T19:10:15.208Z,98774.27
2018-12-31T19:13:21.155Z,98772.61
2018-12-31T19:16:26.950Z,98768.80
2018-12-31T19:19:32.530Z,98761.97
2018-12-31T19:22:38.111Z,98755.64
2018-12-31T19:25:43.748Z,98756.52
2018-12-31T19:28:49.270Z,98753.10
2018-12-31T19:31:54.857Z,98746.73
2018-12-31T19:35:00.419Z,98744.69
2018-12-31T19:38:06.157Z,98741.27
2018-12-31T19:41:11.860Z,98745.95
2018-12-31T19:44:17.441Z,98740.86
2018-12-31T19:47:23.475Z,98744.22
2018-12-31T19:50:29.445Z,98743.83
2018-12-31T19:53:34.972Z,98748.52
2018-12-31T19:56:40.561Z,98738.81
2018-12-31T19:59:46.393Z,98743.87
2018-12-31T20:02:51.975Z,98736.67
2018-12-31T20:05:58.846Z,98742.23
2018-12-31T20:09:05.876Z,98743.48
2018-12-31T20:12:11.424Z,98743.91
2018-12-31T20:15:17.070Z,98735.02
2018-12-31T20:18:24.189Z,98744.75
2018-12-31T20:21:29.833Z,98743.94
2018-12-31T20:24:35.369Z,98742.21
2018-12-31T20:27:40.930Z,98732.89
2018-12-31T20:30:46.474Z,98734.58
2018-12-31T20:33:52.316Z,98736.70
2018-12-31T20:36:59.155Z,98736.28
2018-12-31T20:40:04.888Z,98735.84
2018-12-31T20:43:11.012Z,98732.48
2018-12-31T20:46:16.571Z,98732.88
2018-12-31T20:49:22.500Z,98729.50
2018-12-31T20:52:28.086Z,98729.95
2018-12-31T20:55:33.700Z,98729.50
2018-12-31T20:58:39.428Z,98723.58
2018-12-31T21:01:45.923Z,98722.71
2018-12-31T21:04:54.412Z,98727.40
2018-12-31T21:08:00.007Z,98729.48
2018-12-31T21:11:06.290Z,98729.91
2018-12-31T21:14:11.876Z,98730.34
2018-12-31T21:17:17.454Z,98729.47
2018-12-31T21:20:23.034Z,98725.64
2018-12-31T21:23:28.616Z,98729.91
2018-12-31T21:26:34.382Z,98729.48
2018-12-31T21:29:51.256Z,98727.80
2018-12-31T21:32:58.406Z,98723.58
2018-12-31T21:36:04.323Z,98727.36
2018-12-31T21:39:10.281Z,98726.11
2018-12-31T21:42:15.982Z,98715.48
2018-12-31T21:45:21.608Z,98718.03
2018-12-31T21:48:27.205Z,98712.11
2018-12-31T21:51:33.018Z,98716.32
2018-12-31T21:54:38.612Z,98718.88
2018-12-31T21:57:44.281Z,98718.86
2018-12-31T22:00:49.853Z,98712.48
2018-12-31T22:03:56.713Z,98714.17
2018-12-31T22:07:04.133Z,98708.67
2018-12-31T22:10:11.223Z,98705.70
2018-12-31T22:13:18.592Z,98697.23
2018-12-31T22:16:25.547Z,98701.06
2018-12-31T22:19:32.520Z,98700.22
2018-12-31T22:22:38.174Z,98686.27
2018-12-31T22:25:45.201Z,98685.47
2018-12-31T22:28:52.198Z,98686.30
2018-12-31T22:31:59.164Z,98680.80
2018-12-31T22:35:06.188Z,98685.48
2018-12-31T22:38:13.304Z,98681.23
2018-12-31T22:41:20.300Z,98677.42
2018-12-31T22:44:27.343Z,98669.39
2018-12-31T22:47:34.307Z,98668.53
2018-12-31T22:50:41.360Z,98660.89
2018-12-31T22:53:48.654Z,98657.09
2018-12-31T22:56:55.643Z,98662.17
2018-12-31T23:00:02.624Z,98661.33
2018-12-31T23:03:11.808Z,98660.08
2018-12-31T23:06:19.816Z,98662.60
2018-12-31T23:09:26.815Z,98655.41
2018-12-31T23:12:33.657Z,98658.78
2018-12-31T23:15:40.921Z,98657.09
2018-12-31T23:18:47.924Z,98655.82
2018-12-31T23:21:55.182Z,98651.17
2018-12-31T23:25:01.986Z,98646.94
2018-12-31T23:28:11.976Z,98646.52
2018-12-31T23:31:19.255Z,98644.39
2018-12-31T23:34:26.273Z,98634.21
2018-12-31T23:37:33.018Z,98640.58
2018-12-31T23:40:39.917Z,98639.72
2018-12-31T23:43:46.940Z,98630.41
2018-12-31T23:46:56.562Z,98627.45
2018-12-31T23:50:03.694Z,98632.11
2018-12-31T23:53:10.440Z,98632.14
2018-12-31T23:56:18.098Z,98621.11
2018-12-31T23:59:24.777Z,98618.97
